sensor_id;sensor_type;location;lat;lon;timestamp;pressure;altitude;pressure_sealevel;temperature;humidity
53522;BME280;39398;48.382;9.802;2022-08-03T00:00:50;94029.66;;;19.69;61.84
53522;BME280;39398;48.382;9.802;2022-08-03T00:01:52;94027.94;;;19.63;62.23
53522;BME280;39398;48.382;9.802;2022-08-03T00:02:53;94029.72;;;19.58;62.33
53522;BME280;39398;48.382;9.802;2022-08-03T00:03:55;94028.28;;;19.50;62.62
53522;BME280;39398;48.382;9.802;2022-08-03T00:04:56;94028.09;;;19.57;62.53
53522;BME280;39398;48.382;9.802;2022-08-03T00:05:58;94029.72;;;19.58;62.49
53522;BME280;39398;48.382;9.802;2022-08-03T00:07:05;94019.00;;;19.58;62.54
53522;BME280;39398;48.382;9.802;2022-08-03T00:08:06;94029.97;;;19.56;62.45
53522;BME280;39398;48.382;9.802;2022-08-03T00:09:09;94028.16;;;19.62;62.46
53522;BME280;39398;48.382;9.802;2022-08-03T00:10:11;94023.16;;;19.65;62.32
53522;BME280;39398;48.382;9.802;2022-08-03T00:11:15;94017.22;;;19.80;61.79
53522;BME280;39398;48.382;9.802;2022-08-03T00:12:16;94028.25;;;19.84;61.48
53522;BME280;39398;48.382;9.802;2022-08-03T00:13:18;94025.25;;;19.80;61.54
53522;BME280;39398;48.382;9.802;2022-08-03T00:14:20;94026.00;;;19.76;61.92
53522;BME280;39398;48.382;9.802;2022-08-03T00:15:21;94021.38;;;19.71;61.90
53522;BME280;39398;48.382;9.802;2022-08-03T00:16:23;94021.06;;;19.67;62.16
53522;BME280;39398;48.382;9.802;2022-08-03T00:17:24;94016.19;;;19.64;62.19
53522;BME280;39398;48.382;9.802;2022-08-03T00:18:26;94021.69;;;19.58;62.54
53522;BME280;39398;48.382;9.802;2022-08-03T00:19:27;94021.69;;;19.58;62.47
53522;BME280;39398;48.382;9.802;2022-08-03T00:20:29;94019.25;;;19.56;62.63
53522;BME280;39398;48.382;9.802;2022-08-03T00:21:30;94022.75;;;19.57;62.71
53522;BME280;39398;48.382;9.802;2022-08-03T00:22:33;94022.00;;;19.61;62.34
53522;BME280;39398;48.382;9.802;2022-08-03T00:23:35;94025.97;;;19.59;62.72
53522;BME280;39398;48.382;9.802;2022-08-03T00:24:53;94019.66;;;19.48;62.89
53522;BME280;39398;48.382;9.802;2022-08-03T00:25:54;94010.50;;;19.44;63.11
53522;BME280;39398;48.382;9.802;2022-08-03T00:26:57;94019.56;;;19.43;63.12
53522;BME280;39398;48.382;9.802;2022-08-03T00:27:58;94011.53;;;19.43;63.14
53522;BME280;39398;48.382;9.802;2022-08-03T00:29:00;94014.06;;;19.49;63.08
53522;BME280;39398;48.382;9.802;2022-08-03T00:30:02;94012.69;;;19.47;62.79
53522;BME280;39398;48.382;9.802;2022-08-03T00:31:04;94013.81;;;19.51;62.86
53522;BME280;39398;48.382;9.802;2022-08-03T00:32:07;94009.38;;;19.57;62.61
53522;BME280;39398;48.382;9.802;2022-08-03T00:33:12;94012.75;;;19.52;62.77
53522;BME280;39398;48.382;9.802;2022-08-03T00:34:14;94016.25;;;19.52;62.80
53522;BME280;39398;48.382;9.802;2022-08-03T00:35:16;94009.59;;;19.55;62.77
53522;BME280;39398;48.382;9.802;2022-08-03T00:36:36;94017.31;;;19.51;62.92
53522;BME280;39398;48.382;9.802;2022-08-03T00:37:38;94020.78;;;19.52;62.96
53522;BME280;39398;48.382;9.802;2022-08-03T00:38:42;94014.09;;;19.66;62.38
53522;BME280;39398;48.382;9.802;2022-08-03T00:39:43;94012.72;;;19.64;62.54
53522;BME280;39398;48.382;9.802;2022-08-03T00:40:45;94012.84;;;19.57;62.62
53522;BME280;39398;48.382;9.802;2022-08-03T00:41:46;94012.34;;;19.60;62.52
53522;BME280;39398;48.382;9.802;2022-08-03T00:42:52;94015.03;;;19.60;62.62
53522;BME280;39398;48.382;9.802;2022-08-03T00:43:54;94012.94;;;19.62;62.59
53522;BME280;39398;48.382;9.802;2022-08-03T00:44:55;94010.84;;;19.64;62.66
53522;BME280;39398;48.382;9.802;2022-08-03T00:45:57;94016.41;;;19.63;62.38
53522;BME280;39398;48.382;9.802;2022-08-03T00:46:58;94014.72;;;19.57;62.57
53522;BME280;39398;48.382;9.802;2022-08-03T00:48:01;94009.09;;;19.58;62.65
53522;BME280;39398;48.382;9.802;2022-08-03T00:49:02;94011.22;;;19.56;62.59
53522;BME280;39398;48.382;9.802;2022-08-03T00:50:05;94017.88;;;19.54;62.75
53522;BME280;39398;48.382;9.802;2022-08-03T00:51:06;94009.75;;;19.48;63.04
53522;BME280;39398;48.382;9.802;2022-08-03T00:52:09;94017.25;;;19.46;63.20
53522;BME280;39398;48.382;9.802;2022-08-03T00:53:11;94016.41;;;19.46;63.28
53522;BME280;39398;48.382;9.802;2022-08-03T00:54:13;94016.97;;;19.48;63.24
53522;BME280;39398;48.382;9.802;2022-08-03T00:55:15;94015.13;;;19.48;63.01
53522;BME280;39398;48.382;9.802;2022-08-03T00:56:17;94021.38;;;19.54;62.79
53522;BME280;39398;48.382;9.802;2022-08-03T00:57:19;94012.84;;;19.57;62.71
53522;BME280;39398;48.382;9.802;2022-08-03T00:58:22;94021.28;;;19.49;62.89
53522;BME280;39398;48.382;9.802;2022-08-03T00:59:24;94018.38;;;19.50;63.05
53522;BME280;39398;48.382;9.802;2022-08-03T01:00:26;94017.13;;;19.58;62.71
53522;BME280;39398;48.382;9.802;2022-08-03T01:01:28;94017.72;;;19.60;62.75
53522;BME280;39398;48.382;9.802;2022-08-03T01:02:33;94024.53;;;19.68;62.44
53522;BME280;39398;48.382;9.802;2022-08-03T01:03:34;94018.22;;;19.74;61.96
53522;BME280;39398;48.382;9.802;2022-08-03T01:04:36;94016.66;;;19.78;61.93
53522;BME280;39398;48.382;9.802;2022-08-03T01:05:52;94018.16;;;19.91;61.33
53522;BME280;39398;48.382;9.802;2022-08-03T01:07:01;94008.59;;;19.95;61.40
53522;BME280;39398;48.382;9.802;2022-08-03T01:08:07;94016.50;;;19.85;61.41
53522;BME280;39398;48.382;9.802;2022-08-03T01:09:18;94014.94;;;19.89;61.56
53522;BME280;39398;48.382;9.802;2022-08-03T01:10:27;94014.13;;;19.88;61.49
53522;BME280;39398;48.382;9.802;2022-08-03T01:11:38;94014.75;;;19.95;61.19
53522;BME280;39398;48.382;9.802;2022-08-03T01:13:04;94012.69;;;19.81;62.04
53522;BME280;39398;48.382;9.802;2022-08-03T01:14:36;94007.81;;;19.78;61.96
53522;BME280;39398;48.382;9.802;2022-08-03T01:15:42;94008.63;;;19.78;61.70
53522;BME280;39398;48.382;9.802;2022-08-03T01:16:52;94009.19;;;19.80;61.74
53522;BME280;39398;48.382;9.802;2022-08-03T01:17:59;94008.16;;;19.64;62.39
53522;BME280;39398;48.382;9.802;2022-08-03T01:19:17;94013.16;;;19.61;62.58
53522;BME280;39398;48.382;9.802;2022-08-03T01:20:26;94007.88;;;19.49;62.80
53522;BME280;39398;48.382;9.802;2022-08-03T01:21:31;94003.59;;;19.48;63.19
53522;BME280;39398;48.382;9.802;2022-08-03T01:24:34;94007.16;;;19.37;63.44
53522;BME280;39398;48.382;9.802;2022-08-03T01:25:54;94002.53;;;19.32;63.66
53522;BME280;39398;48.382;9.802;2022-08-03T01:27:04;94001.91;;;19.42;63.33
53522;BME280;39398;48.382;9.802;2022-08-03T01:28:21;94002.00;;;19.47;63.09
53522;BME280;39398;48.382;9.802;2022-08-03T01:29:40;93997.19;;;19.49;62.91
53522;BME280;39398;48.382;9.802;2022-08-03T01:30:47;93997.66;;;19.46;62.96
53522;BME280;39398;48.382;9.802;2022-08-03T01:31:56;93999.31;;;19.47;62.92
53522;BME280;39398;48.382;9.802;2022-08-03T01:33:21;93993.47;;;19.50;62.88
53522;BME280;39398;48.382;9.802;2022-08-03T01:34:25;93993.69;;;19.48;62.90
53522;BME280;39398;48.382;9.802;2022-08-03T01:35:32;94002.94;;;19.58;62.45
53522;BME280;39398;48.382;9.802;2022-08-03T01:36:42;93991.59;;;19.50;62.77
53522;BME280;39398;48.382;9.802;2022-08-03T01:37:49;94000.59;;;19.44;63.21
53522;BME280;39398;48.382;9.802;2022-08-03T01:38:54;93999.00;;;19.43;63.04
53522;BME280;39398;48.382;9.802;2022-08-03T01:39:57;93995.31;;;19.49;62.80
53522;BME280;39398;48.382;9.802;2022-08-03T01:41:03;93997.13;;;19.44;63.12
53522;BME280;39398;48.382;9.802;2022-08-03T01:42:07;93993.97;;;19.47;62.91
53522;BME280;39398;48.382;9.802;2022-08-03T01:43:15;93988.59;;;19.47;62.83
53522;BME280;39398;48.382;9.802;2022-08-03T01:44:40;93984.59;;;19.49;62.61
53522;BME280;39398;48.382;9.802;2022-08-03T01:45:43;93994.19;;;19.45;62.94
53522;BME280;39398;48.382;9.802;2022-08-03T01:46:45;93988.34;;;19.48;62.67
53522;BME280;39398;48.382;9.802;2022-08-03T01:47:50;93996.19;;;19.55;62.59
53522;BME280;39398;48.382;9.802;2022-08-03T01:48:54;93993.63;;;19.60;62.50
53522;BME280;39398;48.382;9.802;2022-08-03T01:49:57;93994.69;;;19.59;62.33
53522;BME280;39398;48.382;9.802;2022-08-03T01:51:00;93990.44;;;19.63;61.99
53522;BME280;39398;48.382;9.802;2022-08-03T01:52:03;93991.84;;;19.66;61.95
53522;BME280;39398;48.382;9.802;2022-08-03T01:53:06;93982.84;;;19.72;61.67
53522;BME280;39398;48.382;9.802;2022-08-03T01:54:10;93985.56;;;19.77;61.41
53522;BME280;39398;48.382;9.802;2022-08-03T01:55:16;93982.41;;;19.80;61.46
53522;BME280;39398;48.382;9.802;2022-08-03T01:56:21;93982.72;;;19.84;61.14
53522;BME280;39398;48.382;9.802;2022-08-03T01:57:26;93979.00;;;19.85;61.13
53522;BME280;39398;48.382;9.802;2022-08-03T01:58:30;93980.84;;;19.84;61.25
53522;BME280;39398;48.382;9.802;2022-08-03T01:59:33;93981.69;;;19.85;61.26
53522;BME280;39398;48.382;9.802;2022-08-03T02:00:37;93982.72;;;19.84;61.13
53522;BME280;39398;48.382;9.802;2022-08-03T02:01:42;93976.56;;;19.83;61.07
53522;BME280;39398;48.382;9.802;2022-08-03T02:03:05;93979.22;;;19.83;61.25
53522;BME280;39398;48.382;9.802;2022-08-03T02:04:07;93976.56;;;19.83;61.03
53522;BME280;39398;48.382;9.802;2022-08-03T02:05:10;93977.94;;;19.86;60.98
53522;BME280;39398;48.382;9.802;2022-08-03T02:06:14;93977.66;;;19.87;60.98
53522;BME280;39398;48.382;9.802;2022-08-03T02:07:39;93983.28;;;19.86;60.83
53522;BME280;39398;48.382;9.802;2022-08-03T02:08:42;93977.13;;;19.85;61.07
53522;BME280;39398;48.382;9.802;2022-08-03T02:09:50;93980.84;;;19.84;61.01
53522;BME280;39398;48.382;9.802;2022-08-03T02:10:54;93980.13;;;19.89;60.90
53522;BME280;39398;48.382;9.802;2022-08-03T02:11:57;93982.81;;;19.89;60.55
53522;BME280;39398;48.382;9.802;2022-08-03T02:13:00;93979.84;;;19.90;60.84
53522;BME280;39398;48.382;9.802;2022-08-03T02:14:04;93979.63;;;19.92;60.67
53522;BME280;39398;48.382;9.802;2022-08-03T02:15:07;93977.97;;;19.91;60.77
53522;BME280;39398;48.382;9.802;2022-08-03T02:16:12;93968.53;;;19.83;60.85
53522;BME280;39398;48.382;9.802;2022-08-03T02:17:15;93979.81;;;19.68;61.43
53522;BME280;39398;48.382;9.802;2022-08-03T02:18:17;93979.16;;;19.61;61.77
53522;BME280;39398;48.382;9.802;2022-08-03T02:19:21;93976.44;;;19.56;62.10
53522;BME280;39398;48.382;9.802;2022-08-03T02:20:26;93981.13;;;19.49;62.23
53522;BME280;39398;48.382;9.802;2022-08-03T02:21:31;93985.50;;;19.55;62.21
53522;BME280;39398;48.382;9.802;2022-08-03T02:22:53;93979.19;;;19.44;62.37
53522;BME280;39398;48.382;9.802;2022-08-03T02:23:55;93974.63;;;19.45;62.44
53522;BME280;39398;48.382;9.802;2022-08-03T02:24:56;93978.94;;;19.46;62.31
53522;BME280;39398;48.382;9.802;2022-08-03T02:26:01;93975.69;;;19.44;62.50
53522;BME280;39398;48.382;9.802;2022-08-03T02:27:09;93974.91;;;19.43;62.60
53522;BME280;39398;48.382;9.802;2022-08-03T02:28:16;93970.34;;;19.44;62.51
53522;BME280;39398;48.382;9.802;2022-08-03T02:29:20;93976.19;;;19.41;62.58
53522;BME280;39398;48.382;9.802;2022-08-03T02:30:44;93975.88;;;19.37;62.66
53522;BME280;39398;48.382;9.802;2022-08-03T02:31:56;93974.50;;;19.35;62.85
53522;BME280;39398;48.382;9.802;2022-08-03T02:32:59;93982.75;;;19.33;62.89
53522;BME280;39398;48.382;9.802;2022-08-03T02:34:05;93978.22;;;19.34;62.83
53522;BME280;39398;48.382;9.802;2022-08-03T02:35:10;93979.84;;;19.35;62.86
53522;BME280;39398;48.382;9.802;2022-08-03T02:36:13;93969.94;;;19.35;62.68
53522;BME280;39398;48.382;9.802;2022-08-03T02:37:17;93971.22;;;19.33;62.94
53522;BME280;39398;48.382;9.802;2022-08-03T02:38:22;93972.53;;;19.30;62.86
53522;BME280;39398;48.382;9.802;2022-08-03T02:39:27;93965.81;;;19.27;62.95
53522;BME280;39398;48.382;9.802;2022-08-03T02:40:32;93967.53;;;19.34;62.60
53522;BME280;39398;48.382;9.802;2022-08-03T02:41:36;93969.38;;;19.33;62.72
53522;BME280;39398;48.382;9.802;2022-08-03T02:42:41;93967.53;;;19.34;62.71
53522;BME280;39398;48.382;9.802;2022-08-03T02:43:47;93975.28;;;19.35;62.55
53522;BME280;39398;48.382;9.802;2022-08-03T02:45:09;93967.75;;;19.32;62.87
53522;BME280;39398;48.382;9.802;2022-08-03T02:46:13;93971.22;;;19.33;62.68
53522;BME280;39398;48.382;9.802;2022-08-03T02:47:19;93976.28;;;19.29;62.99
53522;BME280;39398;48.382;9.802;2022-08-03T02:48:23;93974.50;;;19.18;63.15
53522;BME280;39398;48.382;9.802;2022-08-03T02:49:27;93970.81;;;19.07;63.61
53522;BME280;39398;48.382;9.802;2022-08-03T02:50:52;93974.94;;;18.98;64.12
53522;BME280;39398;48.382;9.802;2022-08-03T02:51:55;93968.94;;;18.91;64.29
53522;BME280;39398;48.382;9.802;2022-08-03T02:52:58;93968.72;;;18.92;64.58
53522;BME280;39398;48.382;9.802;2022-08-03T02:54:03;93966.84;;;18.93;64.40
53522;BME280;39398;48.382;9.802;2022-08-03T02:55:06;93963.69;;;18.96;64.40
53522;BME280;39398;48.382;9.802;2022-08-03T02:56:10;93969.84;;;18.96;64.23
53522;BME280;39398;48.382;9.802;2022-08-03T02:57:13;93968.78;;;18.97;64.32
53522;BME280;39398;48.382;9.802;2022-08-03T02:58:17;93966.69;;;18.99;64.21
53522;BME280;39398;48.382;9.802;2022-08-03T02:59:20;93970.09;;;18.95;64.24
53522;BME280;39398;48.382;9.802;2022-08-03T03:00:23;93966.06;;;18.92;64.44
53522;BME280;39398;48.382;9.802;2022-08-03T03:01:29;93966.06;;;18.92;64.57
53522;BME280;39398;48.382;9.802;2022-08-03T03:02:33;93968.72;;;18.92;64.46
53522;BME280;39398;48.382;9.802;2022-08-03T03:03:35;93959.78;;;18.87;64.65
53522;BME280;39398;48.382;9.802;2022-08-03T03:04:46;93962.69;;;18.85;64.69
53522;BME280;39398;48.382;9.802;2022-08-03T03:06:11;93963.34;;;18.75;65.03
53522;BME280;39398;48.382;9.802;2022-08-03T03:07:15;93962.31;;;18.65;65.29
53522;BME280;39398;48.382;9.802;2022-08-03T03:08:19;93960.03;;;18.56;65.72
53522;BME280;39398;48.382;9.802;2022-08-03T03:09:29;93961.97;;;18.44;66.17
53522;BME280;39398;48.382;9.802;2022-08-03T03:10:42;93957.31;;;18.40;66.45
53522;BME280;39398;48.382;9.802;2022-08-03T03:11:44;93954.91;;;18.38;66.72
53522;BME280;39398;48.382;9.802;2022-08-03T03:12:47;93965.47;;;18.33;66.73
53522;BME280;39398;48.382;9.802;2022-08-03T03:13:51;93953.88;;;18.27;67.00
53522;BME280;39398;48.382;9.802;2022-08-03T03:14:53;93950.50;;;18.32;66.93
53522;BME280;39398;48.382;9.802;2022-08-03T03:15:55;93956.53;;;18.27;67.00
53522;BME280;39398;48.382;9.802;2022-08-03T03:16:57;93959.22;;;18.27;67.05
53522;BME280;39398;48.382;9.802;2022-08-03T03:18:01;93961.09;;;18.27;67.24
53522;BME280;39398;48.382;9.802;2022-08-03T03:19:03;93954.13;;;18.26;67.21
53522;BME280;39398;48.382;9.802;2022-08-03T03:20:07;93962.38;;;18.24;67.47
53522;BME280;39398;48.382;9.802;2022-08-03T03:21:09;93964.22;;;18.24;67.56
53522;BME280;39398;48.382;9.802;2022-08-03T03:22:11;93959.94;;;18.23;67.63
53522;BME280;39398;48.382;9.802;2022-08-03T03:23:13;93963.41;;;18.23;67.34
53522;BME280;39398;48.382;9.802;2022-08-03T03:24:15;93967.72;;;18.24;67.29
53522;BME280;39398;48.382;9.802;2022-08-03T03:25:18;93965.63;;;18.26;67.14
53522;BME280;39398;48.382;9.802;2022-08-03T03:26:20;93961.09;;;18.27;67.25
53522;BME280;39398;48.382;9.802;2022-08-03T03:27:22;93964.91;;;18.31;67.04
53522;BME280;39398;48.382;9.802;2022-08-03T03:28:24;93971.06;;;18.31;66.96
53522;BME280;39398;48.382;9.802;2022-08-03T03:29:25;93967.22;;;18.27;66.96
53522;BME280;39398;48.382;9.802;2022-08-03T03:30:28;93958.75;;;18.30;67.17
53522;BME280;39398;48.382;9.802;2022-08-03T03:31:30;93967.91;;;18.34;66.94
53522;BME280;39398;48.382;9.802;2022-08-03T03:32:32;93965.81;;;18.36;66.49
53522;BME280;39398;48.382;9.802;2022-08-03T03:33:36;93964.41;;;18.34;66.72
53522;BME280;39398;48.382;9.802;2022-08-03T03:34:38;93966.28;;;18.33;66.82
53522;BME280;39398;48.382;9.802;2022-08-03T03:35:40;93953.19;;;18.32;66.73
53522;BME280;39398;48.382;9.802;2022-08-03T03:36:42;93959.53;;;18.31;66.71
53522;BME280;39398;48.382;9.802;2022-08-03T03:37:44;93961.75;;;18.34;66.73
53522;BME280;39398;48.382;9.802;2022-08-03T03:38:45;93964.41;;;18.34;66.62
53522;BME280;39398;48.382;9.802;2022-08-03T03:39:47;93956.19;;;18.35;66.67
53522;BME280;39398;48.382;9.802;2022-08-03T03:40:48;93959.31;;;18.32;66.65
53522;BME280;39398;48.382;9.802;2022-08-03T03:41:50;93962.94;;;18.26;66.91
53522;BME280;39398;48.382;9.802;2022-08-03T03:42:52;93956.22;;;18.24;66.99
53522;BME280;39398;48.382;9.802;2022-08-03T03:43:54;93959.84;;;18.18;67.26
53522;BME280;39398;48.382;9.802;2022-08-03T03:44:55;93959.16;;;18.10;67.48
53522;BME280;39398;48.382;9.802;2022-08-03T03:46:00;93955.44;;;18.11;67.62
53522;BME280;39398;48.382;9.802;2022-08-03T03:47:02;93970.91;;;18.09;67.71
53522;BME280;39398;48.382;9.802;2022-08-03T03:48:04;93959.63;;;18.07;67.65
53522;BME280;39398;48.382;9.802;2022-08-03T03:49:07;93967.88;;;18.06;67.81
53522;BME280;39398;48.382;9.802;2022-08-03T03:50:09;93968.59;;;18.01;67.94
53522;BME280;39398;48.382;9.802;2022-08-03T03:51:11;93968.00;;;17.99;68.10
53522;BME280;39398;48.382;9.802;2022-08-03T03:52:15;93965.00;;;17.96;68.51
53522;BME280;39398;48.382;9.802;2022-08-03T03:53:17;93964.53;;;17.99;68.34
53522;BME280;39398;48.382;9.802;2022-08-03T03:54:18;93964.53;;;17.99;68.38
53522;BME280;39398;48.382;9.802;2022-08-03T03:55:20;93961.38;;;18.02;68.08
53522;BME280;39398;48.382;9.802;2022-08-03T03:56:22;93966.25;;;18.05;68.18
53522;BME280;39398;48.382;9.802;2022-08-03T03:57:23;93963.13;;;18.08;67.84
53522;BME280;39398;48.382;9.802;2022-08-03T03:58:25;93962.91;;;18.09;67.85
53522;BME280;39398;48.382;9.802;2022-08-03T03:59:26;93969.03;;;18.10;67.80
53522;BME280;39398;48.382;9.802;2022-08-03T04:00:28;93966.03;;;18.06;67.86
53522;BME280;39398;48.382;9.802;2022-08-03T04:01:30;93964.38;;;18.05;67.87
53522;BME280;39398;48.382;9.802;2022-08-03T04:02:32;93973.13;;;18.01;68.15
53522;BME280;39398;48.382;9.802;2022-08-03T04:03:34;93968.84;;;18.00;68.15
53522;BME280;39398;48.382;9.802;2022-08-03T04:04:37;93970.13;;;17.97;68.24
53522;BME280;39398;48.382;9.802;2022-08-03T04:05:39;93966.88;;;17.95;68.26
53522;BME280;39398;48.382;9.802;2022-08-03T04:06:46;93967.59;;;17.91;68.52
53522;BME280;39398;48.382;9.802;2022-08-03T04:07:58;93966.19;;;17.88;68.74
53522;BME280;39398;48.382;9.802;2022-08-03T04:09:01;93965.59;;;17.86;68.44
53522;BME280;39398;48.382;9.802;2022-08-03T04:10:09;93971.28;;;17.89;68.62
53522;BME280;39398;48.382;9.802;2022-08-03T04:11:17;93965.84;;;17.84;68.88
53522;BME280;39398;48.382;9.802;2022-08-03T04:12:30;93969.22;;;17.80;69.00
53522;BME280;39398;48.382;9.802;2022-08-03T04:13:36;93973.38;;;17.76;69.29
53522;BME280;39398;48.382;9.802;2022-08-03T04:14:39;93970.94;;;17.74;69.28
53522;BME280;39398;48.382;9.802;2022-08-03T04:15:41;93969.31;;;17.73;69.40
53522;BME280;39398;48.382;9.802;2022-08-03T04:16:45;93964.56;;;17.75;69.27
53522;BME280;39398;48.382;9.802;2022-08-03T04:17:49;93969.91;;;17.75;69.32
53522;BME280;39398;48.382;9.802;2022-08-03T04:18:57;93975.34;;;17.80;68.98
53522;BME280;39398;48.382;9.802;2022-08-03T04:20:03;93972.69;;;17.80;69.15
53522;BME280;39398;48.382;9.802;2022-08-03T04:21:08;93972.47;;;17.82;69.20
53522;BME280;39398;48.382;9.802;2022-08-03T04:22:15;93977.34;;;17.85;68.91
53522;BME280;39398;48.382;9.802;2022-08-03T04:23:20;93983.00;;;17.88;68.71
53522;BME280;39398;48.382;9.802;2022-08-03T04:24:22;93976.16;;;17.93;68.51
53522;BME280;39398;48.382;9.802;2022-08-03T04:25:30;93976.75;;;17.95;68.48
53522;BME280;39398;48.382;9.802;2022-08-03T04:26:34;93978.59;;;17.94;68.25
53522;BME280;39398;48.382;9.802;2022-08-03T04:27:39;93975.94;;;17.94;68.40
53522;BME280;39398;48.382;9.802;2022-08-03T04:28:43;93977.31;;;17.97;68.39
53522;BME280;39398;48.382;9.802;2022-08-03T04:29:46;93976.88;;;17.88;68.53
53522;BME280;39398;48.382;9.802;2022-08-03T04:30:52;93982.09;;;17.83;68.80
53522;BME280;39398;48.382;9.802;2022-08-03T04:31:56;93982.34;;;17.81;68.99
53522;BME280;39398;48.382;9.802;2022-08-03T04:33:00;93983.72;;;17.84;69.09
53522;BME280;39398;48.382;9.802;2022-08-03T04:34:03;93979.09;;;17.79;69.22
53522;BME280;39398;48.382;9.802;2022-08-03T04:35:07;93982.34;;;17.81;69.24
53522;BME280;39398;48.382;9.802;2022-08-03T04:36:12;93982.56;;;17.80;69.28
53522;BME280;39398;48.382;9.802;2022-08-03T04:37:21;93981.38;;;17.76;69.20
53522;BME280;39398;48.382;9.802;2022-08-03T04:38:26;93985.91;;;17.75;69.23
53522;BME280;39398;48.382;9.802;2022-08-03T04:39:30;93993.13;;;17.75;69.29
53522;BME280;39398;48.382;9.802;2022-08-03T04:40:34;93993.13;;;17.75;69.49
53522;BME280;39398;48.382;9.802;2022-08-03T04:41:37;93988.38;;;17.77;69.18
53522;BME280;39398;48.382;9.802;2022-08-03T04:43:00;93986.63;;;17.82;69.20
53522;BME280;39398;48.382;9.802;2022-08-03T04:44:03;93987.88;;;17.92;68.90
53522;BME280;39398;48.382;9.802;2022-08-03T04:45:07;93983.81;;;18.01;68.46
53522;BME280;39398;48.382;9.802;2022-08-03T04:46:12;93987.53;;;18.00;68.78
53522;BME280;39398;48.382;9.802;2022-08-03T04:47:14;93988.78;;;18.09;68.07
53522;BME280;39398;48.382;9.802;2022-08-03T04:48:18;93988.22;;;18.07;68.10
53522;BME280;39398;48.382;9.802;2022-08-03T04:49:20;93988.22;;;18.07;68.32
53522;BME280;39398;48.382;9.802;2022-08-03T04:50:23;93991.09;;;18.05;68.27
53522;BME280;39398;48.382;9.802;2022-08-03T04:51:25;93995.16;;;18.08;68.31
53522;BME280;39398;48.382;9.802;2022-08-03T04:52:28;93988.56;;;18.10;68.37
53522;BME280;39398;48.382;9.802;2022-08-03T04:53:29;93994.22;;;18.14;68.18
53522;BME280;39398;48.382;9.802;2022-08-03T04:54:38;93990.28;;;18.17;68.21
53522;BME280;39398;48.382;9.802;2022-08-03T04:55:39;93984.22;;;18.21;68.14
53522;BME280;39398;48.382;9.802;2022-08-03T04:56:41;93994.44;;;18.24;68.06
53522;BME280;39398;48.382;9.802;2022-08-03T04:57:43;93991.88;;;18.29;68.05
53522;BME280;39398;48.382;9.802;2022-08-03T04:58:44;93996.28;;;18.24;68.81
53522;BME280;39398;48.382;9.802;2022-08-03T04:59:45;93997.28;;;18.34;68.58
53522;BME280;39398;48.382;9.802;2022-08-03T05:00:47;93996.53;;;18.22;69.31
53522;BME280;39398;48.382;9.802;2022-08-03T05:01:49;93993.03;;;18.22;70.02
53522;BME280;39398;48.382;9.802;2022-08-03T05:02:51;93994.09;;;18.21;70.07
53522;BME280;39398;48.382;9.802;2022-08-03T05:03:53;93993.28;;;18.20;70.74
53522;BME280;39398;48.382;9.802;2022-08-03T05:04:54;93996.88;;;18.26;71.49
53522;BME280;39398;48.382;9.802;2022-08-03T05:05:57;93996.63;;;18.27;70.88
53522;BME280;39398;48.382;9.802;2022-08-03T05:07:12;93990.03;;;18.18;71.24
53522;BME280;39398;48.382;9.802;2022-08-03T05:08:13;93992.63;;;18.13;71.75
53522;BME280;39398;48.382;9.802;2022-08-03T05:09:15;93999.56;;;18.14;72.22
53522;BME280;39398;48.382;9.802;2022-08-03T05:10:36;93999.44;;;18.09;71.45
53522;BME280;39398;48.382;9.802;2022-08-03T05:11:37;94000.50;;;18.08;72.08
53522;BME280;39398;48.382;9.802;2022-08-03T05:12:39;94000.50;;;18.08;72.66
53522;BME280;39398;48.382;9.802;2022-08-03T05:13:41;93996.22;;;18.07;72.08
53522;BME280;39398;48.382;9.802;2022-08-03T05:14:42;93997.81;;;18.20;71.09
53522;BME280;39398;48.382;9.802;2022-08-03T05:15:43;94006.50;;;18.27;71.24
53522;BME280;39398;48.382;9.802;2022-08-03T05:16:45;94000.69;;;18.30;72.45
53522;BME280;39398;48.382;9.802;2022-08-03T05:17:46;94000.06;;;18.40;70.46
53522;BME280;39398;48.382;9.802;2022-08-03T05:18:48;93997.59;;;18.50;71.38
53522;BME280;39398;48.382;9.802;2022-08-03T05:19:49;94004.13;;;18.54;70.51
53522;BME280;39398;48.382;9.802;2022-08-03T05:20:51;94005.25;;;18.58;71.04
53522;BME280;39398;48.382;9.802;2022-08-03T05:21:54;94004.28;;;18.64;69.83
53522;BME280;39398;48.382;9.802;2022-08-03T05:22:55;94007.03;;;18.69;70.60
53522;BME280;39398;48.382;9.802;2022-08-03T05:23:57;93999.28;;;18.68;68.99
53522;BME280;39398;48.382;9.802;2022-08-03T05:24:59;94002.44;;;18.93;68.24
53522;BME280;39398;48.382;9.802;2022-08-03T05:26:01;94009.88;;;18.91;69.62
53522;BME280;39398;48.382;9.802;2022-08-03T05:27:02;94005.59;;;18.90;68.38
53522;BME280;39398;48.382;9.802;2022-08-03T05:28:04;94004.84;;;18.95;68.75
53522;BME280;39398;48.382;9.802;2022-08-03T05:29:05;94006.19;;;18.92;70.20
53522;BME280;39398;48.382;9.802;2022-08-03T05:30:08;94005.78;;;19.00;70.13
53522;BME280;39398;48.382;9.802;2022-08-03T05:31:29;93999.13;;;19.20;70.06
53522;BME280;39398;48.382;9.802;2022-08-03T05:32:31;94002.06;;;19.18;69.36
53522;BME280;39398;48.382;9.802;2022-08-03T05:33:32;94002.63;;;19.20;70.01
53522;BME280;39398;48.382;9.802;2022-08-03T05:34:34;94004.47;;;19.37;69.35
53522;BME280;39398;48.382;9.802;2022-08-03T05:35:36;94007.41;;;19.35;68.46
53522;BME280;39398;48.382;9.802;2022-08-03T05:36:59;94009.13;;;19.41;69.39
53522;BME280;39398;48.382;9.802;2022-08-03T05:38:00;94006.84;;;19.50;68.09
53522;BME280;39398;48.382;9.802;2022-08-03T05:39:02;94002.84;;;19.52;66.37
53522;BME280;39398;48.382;9.802;2022-08-03T05:40:05;94006.84;;;19.67;68.45
53522;BME280;39398;48.382;9.802;2022-08-03T05:41:06;94005.94;;;19.61;69.31
53522;BME280;39398;48.382;9.802;2022-08-03T05:42:23;94010.25;;;19.62;67.40
53522;BME280;39398;48.382;9.802;2022-08-03T05:43:24;94006.38;;;19.70;69.68
53522;BME280;39398;48.382;9.802;2022-08-03T05:44:26;94002.63;;;19.71;68.22
53522;BME280;39398;48.382;9.802;2022-08-03T05:45:28;94007.56;;;19.79;69.03